Time,TemperatureF,DewpointF,PressureIn,WindDirection,WindDirectionDegrees,WindSpeedMPH,WindSpeedGustMPH,Humidity,HourlyPrecipIn,Conditions,Clouds,dailyrainin,SoftwareType,DateUTC
2013-05-20 00:01:00,37.4,22.3,30.39,NW,314,0.0,0.0,54,0.00,,---,0.00,VWS V13.00,2013-05-20 08:01:00,
2013-05-20 00:06:00,37.2,22.1,30.42,NW,314,0.0,0.0,54,0.00,,---,0.00,VWS V13.00,2013-05-20 08:06:00,
2013-05-20 00:11:00,37.2,22.1,30.42,NW,314,0.0,0.0,54,0.00,,---,0.00,VWS V13.00,2013-05-20 08:11:00,
2013-05-20 00:16:00,37.0,22.0,30.42,NW,314,0.0,0.0,54,0.00,,---,0.00,VWS V13.00,2013-05-20 08:16:00,
2013-05-20 00:21:00,37.0,22.0,30.42,NW,319,0.0,0.0,54,0.00,,---,0.00,VWS V13.00,2013-05-20 08:21:00,
2013-05-20 00:26:00,36.9,21.8,30.42,NW,319,0.0,0.0,54,0.00,,---,0.00,VWS V13.00,2013-05-20 08:26:00,
2013-05-20 00:31:00,36.7,21.6,30.42,NW,319,0.0,0.0,54,0.00,,---,0.00,VWS V13.00,2013-05-20 08:31:00,
2013-05-20 00:36:00,36.7,21.6,30.42,North,353,0.0,0.0,54,0.00,,---,0.00,VWS V13.00,2013-05-20 08:36:00,
2013-05-20 00:41:00,36.5,21.5,30.42,North,353,0.0,0.0,54,0.00,,---,0.00,VWS V13.00,2013-05-20 08:41:00,
2013-05-20 00:46:00,36.5,21.5,30.42,North,353,0.0,0.0,54,0.00,,---,0.00,VWS V13.00,2013-05-20 08:46:00,
2013-05-20 00:51:00,36.3,21.3,30.42,North,353,0.0,0.0,54,0.00,,---,0.00,VWS V13.00,2013-05-20 08:51:00,
2013-05-20 00:56:00,36.3,21.3,30.42,North,353,0.0,0.0,54,0.00,,---,0.00,VWS V13.00,2013-05-20 08:56:00,
2013-05-20 01:01:00,36.0,21.0,30.42,North,353,0.0,0.0,54,0.00,,---,0.00,VWS V13.00,2013-05-20 09:01:00,
2013-05-20 01:06:00,35.8,20.8,30.42,North,353,0.0,0.0,54,0.00,,---,0.00,VWS V13.00,2013-05-20 09:06:00,
2013-05-20 01:11:00,35.6,20.6,30.42,North,353,0.0,0.0,54,0.00,,---,0.00,VWS V13.00,2013-05-20 09:11:00,
2013-05-20 01:16:00,35.4,20.4,30.42,North,353,0.0,0.0,54,0.00,,---,0.00,VWS V13.00,2013-05-20 09:16:00,
2013-05-20 01:21:00,35.4,20.4,30.42,North,353,0.0,0.0,54,0.00,,---,0.00,VWS V13.00,2013-05-20 09:21:00,
2013-05-20 01:26:00,35.4,20.4,30.42,North,353,0.0,0.0,54,0.00,,---,0.00,VWS V13.00,2013-05-20 09:26:00,
2013-05-20 01:31:00,34.9,19.9,30.42,North,353,0.0,0.0,54,0.00,,---,0.00,VWS V13.00,2013-05-20 09:31:00,
2013-05-20 01:36:00,34.9,19.9,30.42,NW,309,0.0,0.0,54,0.00,,---,0.00,VWS V13.00,2013-05-20 09:36:00,
2013-05-20 01:41:00,34.9,20.4,30.42,NW,309,0.0,0.0,55,0.00,,---,0.00,VWS V13.00,2013-05-20 09:41:00,
2013-05-20 01:46:00,34.9,20.4,30.42,NW,309,0.0,0.0,55,0.00,,---,0.00,VWS V13.00,2013-05-20 09:46:00,
2013-05-20 01:50:00,34.9,20.4,30.42,NW,309,0.0,0.0,55,0.00,,---,0.00,VWS V13.00,2013-05-20 09:50:00,
2013-05-20 01:55:00,34.9,20.4,30.42,NW,309,0.0,0.0,55,0.00,,---,0.00,VWS V13.00,2013-05-20 09:55:00,
2013-05-20 02:00:00,34.5,20.0,30.42,NW,309,0.0,0.0,55,0.00,,---,0.00,VWS V13.00,2013-05-20 10:00:00,
2013-05-20 02:05:00,34.7,20.2,30.42,NW,309,0.0,0.0,55,0.00,,---,0.00,VWS V13.00,2013-05-20 10:05:00,
2013-05-20 02:10:00,34.7,20.2,30.42,NW,309,0.0,0.0,55,0.00,,---,0.00,VWS V13.00,2013-05-20 10:10:00,
2013-05-20 02:15:00,34.5,20.0,30.42,NW,309,0.0,0.0,55,0.00,,---,0.00,VWS V13.00,2013-05-20 10:15:00,
2013-05-20 02:20:00,34.5,20.0,30.42,NW,309,0.0,0.0,55,0.00,,---,0.00,VWS V13.00,2013-05-20 10:20:00,
2013-05-20 02:25:00,34.3,19.9,30.42,NW,309,0.0,0.0,55,0.00,,---,0.00,VWS V13.00,2013-05-20 10:25:00,
2013-05-20 02:30:00,34.2,19.7,30.42,NW,309,0.0,0.0,55,0.00,,---,0.00,VWS V13.00,2013-05-20 10:30:00,
2013-05-20 02:36:00,34.0,19.5,30.42,NW,309,0.0,0.0,55,0.00,,---,0.00,VWS V13.00,2013-05-20 10:36:00,
2013-05-20 02:41:00,34.0,19.5,30.42,NW,309,0.0,0.0,55,0.00,,---,0.00,VWS V13.00,2013-05-20 10:41:00,
2013-05-20 02:46:00,33.6,19.2,30.42,NW,309,0.0,0.0,55,0.00,,---,0.00,VWS V13.00,2013-05-20 10:46:00,
2013-05-20 02:51:00,33.4,19.0,30.42,NW,309,0.0,0.0,55,0.00,,---,0.00,VWS V13.00,2013-05-20 10:51:00,
2013-05-20 02:56:00,33.6,19.2,30.42,NW,309,0.0,0.0,55,0.00,,---,0.00,VWS V13.00,2013-05-20 10:56:00,
2013-05-20 03:01:00,33.4,19.0,30.42,NW,309,0.0,0.0,55,0.00,,---,0.00,VWS V13.00,2013-05-20 11:01:00,
2013-05-20 03:06:00,33.4,19.0,30.42,NW,309,0.0,0.0,55,0.00,,---,0.00,VWS V13.00,2013-05-20 11:06:00,
2013-05-20 03:11:00,33.4,19.0,30.42,NW,309,0.0,0.0,55,0.00,,---,0.00,VWS V13.00,2013-05-20 11:11:00,
2013-05-20 03:16:00,33.4,19.0,30.42,NW,309,0.0,0.0,55,0.00,,---,0.00,VWS V13.00,2013-05-20 11:16:00,
2013-05-20 03:21:00,33.1,18.7,30.42,NW,309,0.0,0.0,55,0.00,,---,0.00,VWS V13.00,2013-05-20 11:21:00,
2013-05-20 03:26:00,33.1,18.7,30.42,NW,309,0.0,0.0,55,0.00,,---,0.00,VWS V13.00,2013-05-20 11:26:00,
2013-05-20 03:31:00,32.9,18.9,30.42,NW,309,0.0,0.0,56,0.00,,---,0.00,VWS V13.00,2013-05-20 11:31:00,
2013-05-20 03:36:00,33.3,19.3,30.42,NW,309,0.0,0.0,56,0.00,,---,0.00,VWS V13.00,2013-05-20 11:36:00,
2013-05-20 03:41:00,33.3,19.3,30.42,NW,309,0.0,0.0,56,0.00,,---,0.00,VWS V13.00,2013-05-20 11:41:00,
2013-05-20 03:46:00,33.6,19.6,30.42,NW,309,0.0,0.0,56,0.00,,---,0.00,VWS V13.00,2013-05-20 11:46:00,
2013-05-20 03:51:00,33.4,19.4,30.42,NW,309,0.0,0.0,56,0.00,,---,0.00,VWS V13.00,2013-05-20 11:51:00,
2013-05-20 03:56:00,33.6,19.6,30.42,NW,309,0.0,0.0,56,0.00,,---,0.00,VWS V13.00,2013-05-20 11:56:00,
2013-05-20 04:01:00,33.6,19.6,30.42,NW,309,0.0,0.0,56,0.00,,---,0.00,VWS V13.00,2013-05-20 12:01:00,
2013-05-20 04:06:00,33.6,19.6,30.42,NW,309,0.0,0.0,56,0.00,,---,0.00,VWS V13.00,2013-05-20 12:06:00,
2013-05-20 04:11:00,33.3,19.3,30.42,NW,309,0.0,0.0,56,0.00,,---,0.00,VWS V13.00,2013-05-20 12:11:00,
2013-05-20 04:16:00,33.3,19.3,30.42,NW,309,0.0,0.0,56,0.00,,---,0.00,VWS V13.00,2013-05-20 12:16:00,
2013-05-20 04:21:00,33.3,19.3,30.42,NW,309,0.0,0.0,56,0.00,,---,0.00,VWS V13.00,2013-05-20 12:21:00,
2013-05-20 04:26:00,33.3,19.3,30.42,NW,309,0.0,0.0,56,0.00,,---,0.00,VWS V13.00,2013-05-20 12:26:00,
2013-05-20 04:31:00,33.3,19.3,30.42,NW,309,0.0,0.0,56,0.00,,---,0.00,VWS V13.00,2013-05-20 12:31:00,
2013-05-20 04:35:00,33.3,19.7,30.42,NW,309,0.0,0.0,57,0.00,,---,0.00,VWS V13.00,2013-05-20 12:35:00,
2013-05-20 04:40:00,33.3,19.7,30.42,NW,309,0.0,0.0,57,0.00,,---,0.00,VWS V13.00,2013-05-20 12:40:00,
2013-05-20 04:45:00,33.1,19.5,30.42,NW,309,0.0,0.0,57,0.00,,---,0.00,VWS V13.00,2013-05-20 12:45:00,
2013-05-20 04:50:00,33.1,19.5,30.42,NW,309,0.0,0.0,57,0.00,,---,0.00,VWS V13.00,2013-05-20 12:50:00,
2013-05-20 04:55:00,33.1,19.5,30.42,NW,309,0.0,0.0,57,0.00,,---,0.00,VWS V13.00,2013-05-20 12:55:00,
2013-05-20 05:00:00,33.1,19.9,30.42,NW,309,0.0,0.0,58,0.00,,---,0.00,VWS V13.00,2013-05-20 13:00:00,
2013-05-20 05:05:00,33.1,19.9,30.42,NW,309,0.0,0.0,58,0.00,,---,0.00,VWS V13.00,2013-05-20 13:05:00,
2013-05-20 05:10:00,33.3,20.1,30.42,NW,309,0.0,0.0,58,0.00,,---,0.00,VWS V13.00,2013-05-20 13:10:00,
2013-05-20 05:15:00,33.3,20.1,30.42,NW,309,0.0,0.0,58,0.00,,---,0.00,VWS V13.00,2013-05-20 13:15:00,
2013-05-20 05:20:00,32.9,19.8,30.42,NW,309,0.0,0.0,58,0.00,,---,0.00,VWS V13.00,2013-05-20 13:20:00,
2013-05-20 05:25:00,32.9,19.8,30.42,NW,309,0.0,0.0,58,0.00,,---,0.00,VWS V13.00,2013-05-20 13:25:00,
2013-05-20 05:30:00,32.9,19.8,30.42,NW,309,0.0,0.0,58,0.00,,---,0.00,VWS V13.00,2013-05-20 13:30:00,
2013-05-20 05:35:00,32.9,19.8,30.42,NW,309,0.0,0.0,58,0.00,,---,0.00,VWS V13.00,2013-05-20 13:35:00,
2013-05-20 05:40:00,32.7,19.6,30.42,NW,309,0.0,0.0,58,0.00,,---,0.00,VWS V13.00,2013-05-20 13:40:00,
2013-05-20 05:45:00,32.7,19.6,30.42,NW,309,0.0,0.0,58,0.00,,---,0.00,VWS V13.00,2013-05-20 13:45:00,
2013-05-20 05:50:00,32.7,19.6,30.42,NW,309,0.0,0.0,58,0.00,,---,0.00,VWS V13.00,2013-05-20 13:50:00,
2013-05-20 05:55:00,32.7,19.6,30.42,NW,309,0.0,0.0,58,0.00,,---,0.00,VWS V13.00,2013-05-20 13:55:00,
2013-05-20 06:00:00,32.7,19.6,30.42,NW,309,0.0,0.0,58,0.00,,---,0.00,VWS V13.00,2013-05-20 14:00:00,
2013-05-20 06:05:00,32.4,19.2,30.42,NW,309,0.0,0.0,58,0.00,,---,0.00,VWS V13.00,2013-05-20 14:05:00,
2013-05-20 06:10:00,32.5,19.8,30.42,NW,309,0.0,0.0,59,0.00,,---,0.00,VWS V13.00,2013-05-20 14:10:00,
2013-05-20 06:15:00,32.5,19.8,30.42,NW,309,0.0,0.0,59,0.00,,---,0.00,VWS V13.00,2013-05-20 14:15:00,
2013-05-20 06:20:00,32.5,19.8,30.42,NW,309,0.0,0.0,59,0.00,,---,0.00,VWS V13.00,2013-05-20 14:20:00,
2013-05-20 06:25:00,32.5,19.8,30.42,NW,309,0.0,0.0,59,0.00,,---,0.00,VWS V13.00,2013-05-20 14:25:00,
2013-05-20 06:30:00,32.9,20.5,30.42,NW,309,0.0,0.0,60,0.00,,---,0.00,VWS V13.00,2013-05-20 14:30:00,
2013-05-20 06:35:00,32.9,20.5,30.42,NW,309,0.0,0.0,60,0.00,,---,0.00,VWS V13.00,2013-05-20 14:35:00,
2013-05-20 06:40:00,33.6,21.6,30.42,North,9,0.0,0.0,61,0.00,,---,0.00,VWS V13.00,2013-05-20 14:40:00,
2013-05-20 06:45:00,33.6,21.6,30.42,North,3,0.0,0.0,61,0.00,,---,0.00,VWS V13.00,2013-05-20 14:45:00,
2013-05-20 06:50:00,33.6,21.6,30.42,North,3,0.0,0.0,61,0.00,,---,0.00,VWS V13.00,2013-05-20 14:50:00,
2013-05-20 06:55:00,34.5,22.9,30.42,North,3,0.0,0.0,62,0.00,,---,0.00,VWS V13.00,2013-05-20 14:55:00,
2013-05-20 07:00:00,34.5,22.9,30.42,North,3,0.0,0.0,62,0.00,,---,0.00,VWS V13.00,2013-05-20 15:00:00,
2013-05-20 07:05:00,35.2,23.9,30.42,North,3,0.0,0.0,63,0.00,,---,0.00,VWS V13.00,2013-05-20 15:05:00,
2013-05-20 07:10:00,35.2,23.9,30.42,North,3,0.0,0.0,63,0.00,,---,0.00,VWS V13.00,2013-05-20 15:10:00,
2013-05-20 07:15:00,35.2,23.9,30.45,North,3,0.0,0.0,63,0.00,,---,0.00,VWS V13.00,2013-05-20 15:15:00,
2013-05-20 07:20:00,36.1,24.8,30.45,North,3,0.0,0.0,63,0.00,,---,0.00,VWS V13.00,2013-05-20 15:20:00,
2013-05-20 07:25:00,36.1,24.8,30.45,North,3,0.0,0.0,63,0.00,,---,0.00,VWS V13.00,2013-05-20 15:25:00,
2013-05-20 07:30:00,37.0,26.0,30.42,North,3,0.0,0.0,64,0.00,,---,0.00,VWS V13.00,2013-05-20 15:30:00,
2013-05-20 07:35:00,37.0,26.0,30.42,North,3,0.0,0.0,64,0.00,,---,0.00,VWS V13.00,2013-05-20 15:35:00,
2013-05-20 07:40:00,37.0,26.0,30.42,North,3,0.0,0.0,64,0.00,,---,0.00,VWS V13.00,2013-05-20 15:40:00,
2013-05-20 07:45:00,38.5,27.0,30.42,North,3,0.0,0.0,63,0.00,,---,0.00,VWS V13.00,2013-05-20 15:45:00,
2013-05-20 07:50:00,38.5,27.0,30.42,North,3,0.0,0.0,63,0.00,,---,0.00,VWS V13.00,2013-05-20 15:50:00,
2013-05-20 07:55:00,38.8,27.0,30.42,North,3,0.0,0.0,62,0.00,,---,0.00,VWS V13.00,2013-05-20 15:55:00,
2013-05-20 08:00:00,38.8,27.0,30.42,North,3,0.0,0.0,62,0.00,,---,0.00,VWS V13.00,2013-05-20 16:00:00,
2013-05-20 08:05:00,38.8,25.3,30.42,NNE,20,0.0,0.0,58,0.00,,---,0.00,VWS V13.00,2013-05-20 16:05:00,
2013-05-20 08:10:00,38.8,25.3,30.42,NNE,20,0.0,0.0,58,0.00,,---,0.00,VWS V13.00,2013-05-20 16:10:00,
2013-05-20 08:15:00,39.2,24.8,30.42,NNE,20,0.0,0.0,56,0.00,,---,0.00,VWS V13.00,2013-05-20 16:15:00,
2013-05-20 08:20:00,39.7,24.9,30.42,NNE,20,0.0,0.0,55,0.00,,---,0.00,VWS V13.00,2013-05-20 16:20:00,
2013-05-20 08:25:00,39.9,25.1,30.42,WNW,294,0.0,0.0,55,0.00,,---,0.00,VWS V13.00,2013-05-20 16:25:00,
2013-05-20 08:30:00,40.3,25.4,30.42,WNW,294,0.0,0.0,55,0.00,,---,0.00,VWS V13.00,2013-05-20 16:30:00,
2013-05-20 08:35:00,40.3,25.4,30.42,WNW,294,0.0,0.0,55,0.00,,---,0.00,VWS V13.00,2013-05-20 16:35:00,
2013-05-20 08:40:00,40.3,25.4,30.42,WNW,294,0.0,0.0,55,0.00,,---,0.00,VWS V13.00,2013-05-20 16:40:00,
2013-05-20 08:45:00,40.3,25.4,30.42,WNW,294,0.0,0.0,55,0.00,,---,0.00,VWS V13.00,2013-05-20 16:45:00,
2013-05-20 08:50:00,41.4,25.1,30.45,WNW,294,0.0,0.0,52,0.00,,---,0.00,VWS V13.00,2013-05-20 16:50:00,
2013-05-20 08:55:00,41.7,25.4,30.45,WNW,294,0.0,0.0,52,0.00,,---,0.00,VWS V13.00,2013-05-20 16:55:00,
2013-05-20 09:00:00,42.6,25.8,30.45,WNW,294,0.0,0.0,51,0.00,,---,0.00,VWS V13.00,2013-05-20 17:00:00,
2013-05-20 09:05:00,42.6,25.8,30.45,WSW,245,0.0,0.0,51,0.00,,---,0.00,VWS V13.00,2013-05-20 17:05:00,
2013-05-20 09:10:00,42.6,25.8,30.45,SSE,147,0.0,0.0,51,0.00,,---,0.00,VWS V13.00,2013-05-20 17:10:00,
2013-05-20 09:15:00,45.1,26.6,30.42,SSE,150,0.0,0.0,48,0.00,,---,0.00,VWS V13.00,2013-05-20 17:15:00,
2013-05-20 09:20:00,45.1,26.6,30.42,SSW,196,0.0,0.0,48,0.00,,---,0.00,VWS V13.00,2013-05-20 17:20:00,
2013-05-20 09:25:00,46.0,27.0,30.42,SSW,213,0.0,0.0,47,0.00,,---,0.00,VWS V13.00,2013-05-20 17:25:00,
2013-05-20 09:30:00,46.0,27.0,30.45,SSW,192,0.0,0.0,47,0.00,,---,0.00,VWS V13.00,2013-05-20 17:30:00,
2013-05-20 09:35:00,46.0,27.0,30.45,SW,221,0.0,0.0,47,0.00,,---,0.00,VWS V13.00,2013-05-20 17:35:00,
2013-05-20 09:40:00,47.3,27.6,30.42,SSW,212,0.0,0.0,46,0.00,,---,0.00,VWS V13.00,2013-05-20 17:40:00,
2013-05-20 09:45:00,47.3,27.6,30.42,ESE,105,0.0,0.0,46,0.00,,---,0.00,VWS V13.00,2013-05-20 17:45:00,
2013-05-20 09:50:00,45.9,25.2,30.42,South,177,0.0,0.0,44,0.00,,---,0.00,VWS V13.00,2013-05-20 17:50:00,
2013-05-20 09:55:00,45.9,25.2,30.42,SSE,160,0.0,0.0,44,0.00,,---,0.00,VWS V13.00,2013-05-20 17:55:00,
2013-05-20 10:00:00,45.9,25.2,30.42,SE,143,0.0,0.0,44,0.00,,---,0.00,VWS V13.00,2013-05-20 18:00:00,
2013-05-20 10:05:00,46.0,26.4,30.42,SSW,209,0.0,0.0,46,0.00,,---,0.00,VWS V13.00,2013-05-20 18:05:00,
2013-05-20 10:10:00,46.0,26.4,30.45,SSE,164,0.0,0.0,46,0.00,,---,0.00,VWS V13.00,2013-05-20 18:10:00,
2013-05-20 10:15:00,47.7,27.4,30.45,SSW,211,0.0,0.0,45,0.00,,---,0.00,VWS V13.00,2013-05-20 18:15:00,
2013-05-20 10:20:00,48.0,27.7,30.42,SSW,202,0.0,0.0,45,0.00,,---,0.00,VWS V13.00,2013-05-20 18:20:00,
2013-05-20 10:25:00,48.4,26.4,30.42,SSE,167,0.0,0.0,42,0.00,,---,0.00,VWS V13.00,2013-05-20 18:25:00,
2013-05-20 10:30:00,48.4,26.4,30.42,SW,224,0.0,0.0,42,0.00,,---,0.00,VWS V13.00,2013-05-20 18:30:00,
2013-05-20 10:35:00,49.5,27.9,30.42,SW,233,0.0,0.0,43,0.00,,---,0.00,VWS V13.00,2013-05-20 18:35:00,
2013-05-20 10:40:00,50.9,28.1,30.42,SSW,211,0.0,0.0,41,0.00,,---,0.00,VWS V13.00,2013-05-20 18:40:00,
2013-05-20 10:45:00,51.1,28.2,30.42,South,188,0.0,0.0,41,0.00,,---,0.00,VWS V13.00,2013-05-20 18:45:00,
2013-05-20 10:50:00,51.3,27.8,30.42,SSW,205,0.0,0.0,40,0.00,,---,0.00,VWS V13.00,2013-05-20 18:50:00,
2013-05-20 10:55:00,51.3,27.8,30.42,SSW,206,0.0,0.0,40,0.00,,---,0.00,VWS V13.00,2013-05-20 18:55:00,
2013-05-20 11:00:00,52.0,27.8,30.42,South,177,0.0,0.0,39,0.00,,---,0.00,VWS V13.00,2013-05-20 19:00:00,
2013-05-20 11:05:00,52.0,27.8,30.42,SW,226,0.0,0.0,39,0.00,,---,0.00,VWS V13.00,2013-05-20 19:05:00,
2013-05-20 11:10:00,51.8,27.6,30.42,South,179,0.0,0.0,39,0.00,,---,0.00,VWS V13.00,2013-05-20 19:10:00,
2013-05-20 11:15:00,51.1,26.4,30.42,SSW,198,0.0,0.0,38,0.00,,---,0.00,VWS V13.00,2013-05-20 19:15:00,
2013-05-20 11:20:00,51.1,26.4,30.42,South,190,0.0,0.0,38,0.00,,---,0.00,VWS V13.00,2013-05-20 19:20:00,
2013-05-20 11:25:00,51.1,26.4,30.42,SE,126,0.0,0.0,38,0.00,,---,0.00,VWS V13.00,2013-05-20 19:25:00,
2013-05-20 11:30:00,51.1,26.4,30.42,SSE,149,0.0,0.0,38,0.00,,---,0.00,VWS V13.00,2013-05-20 19:30:00,
2013-05-20 11:35:00,48.0,25.5,30.42,SSW,205,0.0,0.0,41,0.00,,---,0.00,VWS V13.00,2013-05-20 19:35:00,
2013-05-20 11:40:00,48.2,25.0,30.42,SSW,205,0.0,0.0,40,0.00,,---,0.00,VWS V13.00,2013-05-20 19:40:00,
2013-05-20 11:45:00,48.0,25.5,30.42,SSW,205,0.0,0.0,41,0.00,,---,0.00,VWS V13.00,2013-05-20 19:45:00,
2013-05-20 11:50:00,48.0,25.5,30.42,South,185,0.0,0.0,41,0.00,,---,0.00,VWS V13.00,2013-05-20 19:50:00,
2013-05-20 11:55:00,48.0,25.5,30.42,South,185,0.0,0.0,41,0.00,,---,0.00,VWS V13.00,2013-05-20 19:55:00,
2013-05-20 12:00:00,48.0,25.5,30.42,SSE,147,0.0,0.0,41,0.00,,---,0.00,VWS V13.00,2013-05-20 20:00:00,
2013-05-20 12:05:00,48.0,25.5,30.42,South,181,0.0,0.0,41,0.00,,---,0.00,VWS V13.00,2013-05-20 20:05:00,
2013-05-20 12:10:00,48.2,25.6,30.42,South,176,0.0,0.0,41,0.00,,---,0.00,VWS V13.00,2013-05-20 20:10:00,
2013-05-20 12:15:00,48.2,25.6,30.42,ESE,123,0.0,0.0,41,0.00,,---,0.00,VWS V13.00,2013-05-20 20:15:00,
2013-05-20 12:20:00,48.2,25.6,30.42,ESE,123,0.0,0.0,41,0.00,,---,0.00,VWS V13.00,2013-05-20 20:20:00,
2013-05-20 12:25:00,48.4,26.4,30.42,WSW,237,0.0,0.0,42,0.00,,---,0.00,VWS V13.00,2013-05-20 20:25:00,
2013-05-20 12:30:00,48.9,26.3,30.42,SW,214,0.0,0.0,41,0.00,,---,0.00,VWS V13.00,2013-05-20 20:30:00,
2013-05-20 12:35:00,50.2,26.8,30.42,SSW,194,0.0,0.0,40,0.00,,---,0.00,VWS V13.00,2013-05-20 20:35:00,
2013-05-20 12:40:00,50.5,27.1,30.42,SSW,207,0.0,0.0,40,0.00,,---,0.00,VWS V13.00,2013-05-20 20:40:00,
2013-05-20 12:45:00,50.5,27.1,30.42,SSW,196,0.0,0.0,40,0.00,,---,0.00,VWS V13.00,2013-05-20 20:45:00,
2013-05-20 12:50:00,50.7,26.7,30.42,SSW,197,0.0,0.0,39,0.00,,---,0.00,VWS V13.00,2013-05-20 20:50:00,
2013-05-20 12:55:00,51.3,27.2,30.42,SW,221,0.0,0.0,39,0.00,,---,0.00,VWS V13.00,2013-05-20 20:55:00,
2013-05-20 13:00:00,50.7,26.7,30.42,SSW,205,0.0,0.0,39,0.00,,---,0.00,VWS V13.00,2013-05-20 21:00:00,
2013-05-20 13:05:00,50.5,26.5,30.42,SSW,210,0.0,0.0,39,0.00,,---,0.00,VWS V13.00,2013-05-20 21:05:00,
2013-05-20 13:10:00,49.6,25.7,30.42,SSW,193,0.0,0.0,39,0.00,,---,0.00,VWS V13.00,2013-05-20 21:10:00,
2013-05-20 13:15:00,49.6,25.7,30.42,SSW,193,0.0,0.0,39,0.00,,---,0.00,VWS V13.00,2013-05-20 21:15:00,
2013-05-20 13:20:00,48.7,25.5,30.42,SSW,213,0.0,0.0,40,0.00,,---,0.00,VWS V13.00,2013-05-20 21:20:00,
2013-05-20 13:25:00,48.7,25.5,30.42,SW,229,0.0,0.0,40,0.00,,---,0.00,VWS V13.00,2013-05-20 21:25:00,
2013-05-20 13:30:00,50.5,26.5,30.42,SSW,198,0.0,0.0,39,0.00,,---,0.00,VWS V13.00,2013-05-20 21:30:00,
2013-05-20 13:35:00,50.9,26.8,30.42,WSW,250,0.0,0.0,39,0.00,,---,0.00,VWS V13.00,2013-05-20 21:35:00,
2013-05-20 13:40:00,50.9,26.8,30.42,SW,228,0.0,0.0,39,0.00,,---,0.00,VWS V13.00,2013-05-20 21:40:00,
2013-05-20 13:45:00,49.6,25.7,30.42,South,190,0.0,0.0,39,0.00,,---,0.00,VWS V13.00,2013-05-20 21:45:00,
2013-05-20 13:50:00,49.6,25.7,30.42,SSW,193,0.0,0.0,39,0.00,,---,0.00,VWS V13.00,2013-05-20 21:50:00,
2013-05-20 13:55:00,48.7,25.5,30.42,SSW,193,0.0,0.0,40,0.00,,---,0.00,VWS V13.00,2013-05-20 21:55:00,
2013-05-20 14:00:00,48.9,25.7,30.42,WSW,238,0.0,0.0,40,0.00,,---,0.00,VWS V13.00,2013-05-20 22:00:00,
2013-05-20 14:05:00,48.9,25.7,30.42,SW,215,0.0,0.0,40,0.00,,---,0.00,VWS V13.00,2013-05-20 22:05:00,
2013-05-20 14:10:00,48.9,25.7,30.42,SSW,205,0.0,0.0,40,0.00,,---,0.00,VWS V13.00,2013-05-20 22:10:00,
2013-05-20 14:15:00,49.8,26.5,30.42,SW,217,0.0,0.0,40,0.00,,---,0.00,VWS V13.00,2013-05-20 22:15:00,
2013-05-20 14:20:00,49.6,25.7,30.42,South,185,0.0,0.0,39,0.00,,---,0.00,VWS V13.00,2013-05-20 22:20:00,
2013-05-20 14:25:00,48.7,25.5,30.42,South,169,0.0,0.0,40,0.00,,---,0.00,VWS V13.00,2013-05-20 22:25:00,
2013-05-20 14:30:00,48.0,24.9,30.42,SSE,163,0.0,0.0,40,0.00,,---,0.00,VWS V13.00,2013-05-20 22:30:00,
2013-05-20 14:35:00,47.1,24.6,30.42,SSE,167,0.0,0.0,41,0.00,,---,0.00,VWS V13.00,2013-05-20 22:35:00,
2013-05-20 14:40:00,47.8,25.9,30.42,SSW,208,0.0,0.0,42,0.00,,---,0.00,VWS V13.00,2013-05-20 22:40:00,
2013-05-20 14:45:00,49.3,26.6,30.42,SSW,192,0.0,0.0,41,0.00,,---,0.00,VWS V13.00,2013-05-20 22:45:00,
2013-05-20 14:50:00,49.6,26.9,30.42,SSW,213,0.0,0.0,41,0.00,,---,0.00,VWS V13.00,2013-05-20 22:50:00,
2013-05-20 14:55:00,50.2,26.2,30.42,SSE,158,0.0,0.0,39,0.00,,---,0.00,VWS V13.00,2013-05-20 22:55:00,
2013-05-20 15:00:00,49.1,25.2,30.42,SW,222,0.0,0.0,39,0.00,,---,0.00,VWS V13.00,2013-05-20 23:00:00,
2013-05-20 15:05:00,49.3,26.0,30.42,SSW,212,0.0,0.0,40,0.00,,---,0.00,VWS V13.00,2013-05-20 23:05:00,
2013-05-20 15:10:00,49.5,25.5,30.42,SSE,163,0.0,0.0,39,0.00,,---,0.00,VWS V13.00,2013-05-20 23:10:00,
2013-05-20 15:15:00,49.1,25.8,30.42,SSE,168,0.0,0.0,40,0.00,,---,0.00,VWS V13.00,2013-05-20 23:15:00,
2013-05-20 15:20:00,48.9,25.7,30.42,SSW,199,0.0,0.0,40,0.00,,---,0.00,VWS V13.00,2013-05-20 23:20:00,
2013-05-20 15:25:00,48.9,25.7,30.42,SE,135,0.0,0.0,40,0.00,,---,0.00,VWS V13.00,2013-05-20 23:25:00,
2013-05-20 15:30:00,48.2,25.0,30.42,SW,218,0.0,0.0,40,0.00,,---,0.00,VWS V13.00,2013-05-20 23:30:00,
2013-05-20 15:35:00,49.5,26.2,30.42,SW,215,0.0,0.0,40,0.00,,---,0.00,VWS V13.00,2013-05-20 23:35:00,
2013-05-20 15:40:00,49.6,25.7,30.42,South,172,0.0,0.0,39,0.00,,---,0.00,VWS V13.00,2013-05-20 23:40:00,
2013-05-20 15:45:00,49.6,25.7,30.42,South,188,0.0,0.0,39,0.00,,---,0.00,VWS V13.00,2013-05-20 23:45:00,
2013-05-20 15:50:00,50.5,27.1,30.42,SW,225,0.0,0.0,40,0.00,,---,0.00,VWS V13.00,2013-05-20 23:50:00,
2013-05-20 15:55:00,50.5,26.5,30.42,South,178,0.0,0.0,39,0.00,,---,0.00,VWS V13.00,2013-05-20 23:55:00,
2013-05-20 16:00:00,49.8,26.5,30.42,South,186,0.0,0.0,40,0.00,,---,0.00,VWS V13.00,2013-05-21 00:00:00,
2013-05-20 16:05:00,48.7,25.5,30.42,South,171,0.0,0.0,40,0.00,,---,0.00,VWS V13.00,2013-05-21 00:05:00,
2013-05-20 16:10:00,48.7,25.5,30.42,SE,126,0.0,0.0,40,0.00,,---,0.00,VWS V13.00,2013-05-21 00:10:00,
2013-05-20 16:15:00,48.0,25.5,30.42,SE,133,0.0,0.0,41,0.00,,---,0.00,VWS V13.00,2013-05-21 00:15:00,
2013-05-20 16:20:00,48.0,25.5,30.42,SE,131,0.0,0.0,41,0.00,,---,0.00,VWS V13.00,2013-05-21 00:20:00,
2013-05-20 16:25:00,48.4,25.8,30.42,South,169,0.0,0.0,41,0.00,,---,0.00,VWS V13.00,2013-05-21 00:25:00,
2013-05-20 16:30:00,48.0,25.5,30.42,SE,138,0.0,0.0,41,0.00,,---,0.00,VWS V13.00,2013-05-21 00:30:00,
2013-05-20 16:35:00,48.0,25.5,30.42,SSE,164,0.0,0.0,41,0.00,,---,0.00,VWS V13.00,2013-05-21 00:35:00,
2013-05-20 16:40:00,48.0,25.5,30.42,SSW,200,0.0,0.0,41,0.00,,---,0.00,VWS V13.00,2013-05-21 00:40:00,
2013-05-20 16:45:00,50.7,26.7,30.42,South,185,0.0,0.0,39,0.00,,---,0.00,VWS V13.00,2013-05-21 00:45:00,
2013-05-20 16:50:00,50.9,26.2,30.42,SE,143,0.0,0.0,38,0.00,,---,0.00,VWS V13.00,2013-05-21 00:50:00,
2013-05-20 16:55:00,50.9,26.2,30.39,SSW,195,0.0,0.0,38,0.00,,---,0.00,VWS V13.00,2013-05-21 00:55:00,
2013-05-20 17:00:00,50.9,26.2,30.39,South,182,0.0,0.0,38,0.00,,---,0.00,VWS V13.00,2013-05-21 01:00:00,
2013-05-20 17:05:00,50.9,26.2,30.39,SSW,194,0.0,0.0,38,0.00,,---,0.00,VWS V13.00,2013-05-21 01:05:00,
2013-05-20 17:10:00,50.2,25.6,30.39,South,189,0.0,0.0,38,0.00,,---,0.00,VWS V13.00,2013-05-21 01:10:00,
2013-05-20 17:15:00,49.8,25.9,30.39,SSW,202,0.0,0.0,39,0.00,,---,0.00,VWS V13.00,2013-05-21 01:15:00,
2013-05-20 17:20:00,49.8,25.9,30.39,South,171,0.0,0.0,39,0.00,,---,0.00,VWS V13.00,2013-05-21 01:20:00,
2013-05-20 17:25:00,49.3,25.4,30.39,ESE,123,0.0,0.0,39,0.00,,---,0.00,VWS V13.00,2013-05-21 01:25:00,
2013-05-20 17:30:00,48.2,24.4,30.39,SE,140,0.0,0.0,39,0.00,,---,0.00,VWS V13.00,2013-05-21 01:30:00,
2013-05-20 17:35:00,47.8,24.1,30.39,ESE,115,0.0,0.0,39,0.00,,---,0.00,VWS V13.00,2013-05-21 01:35:00,
2013-05-20 17:40:00,48.0,24.3,30.39,South,177,0.0,0.0,39,0.00,,---,0.00,VWS V13.00,2013-05-21 01:40:00,
2013-05-20 17:45:00,48.0,24.3,30.39,South,189,0.0,0.0,39,0.00,,---,0.00,VWS V13.00,2013-05-21 01:45:00,
2013-05-20 17:50:00,49.1,24.6,30.39,SE,144,0.0,0.0,38,0.00,,---,0.00,VWS V13.00,2013-05-21 01:50:00,
2013-05-20 17:55:00,49.5,24.3,30.39,South,176,0.0,0.0,37,0.00,,---,0.00,VWS V13.00,2013-05-21 01:55:00,
2013-05-20 18:00:00,49.3,24.1,30.39,South,175,0.0,0.0,37,0.00,,---,0.00,VWS V13.00,2013-05-21 02:00:00,
2013-05-20 18:05:00,49.3,24.1,30.39,South,171,0.0,0.0,37,0.00,,---,0.00,VWS V13.00,2013-05-21 02:05:00,
2013-05-20 18:10:00,48.9,23.8,30.39,South,188,0.0,0.0,37,0.00,,---,0.00,VWS V13.00,2013-05-21 02:10:00,
2013-05-20 18:15:00,48.9,23.8,30.39,South,173,0.0,0.0,37,0.00,,---,0.00,VWS V13.00,2013-05-21 02:15:00,
2013-05-20 18:20:00,48.7,23.6,30.39,SE,140,0.0,0.0,37,0.00,,---,0.00,VWS V13.00,2013-05-21 02:20:00,
2013-05-20 18:25:00,49.3,24.8,30.39,SW,215,0.0,0.0,38,0.00,,---,0.00,VWS V13.00,2013-05-21 02:25:00,
2013-05-20 18:30:00,49.3,24.8,30.39,South,184,0.0,0.0,38,0.00,,---,0.00,VWS V13.00,2013-05-21 02:30:00,
2013-05-20 18:35:00,51.1,25.7,30.39,SSW,198,0.0,0.0,37,0.00,,---,0.00,VWS V13.00,2013-05-21 02:35:00,
2013-05-20 18:40:00,51.8,26.4,30.36,SW,223,0.0,0.0,37,0.00,,---,0.00,VWS V13.00,2013-05-21 02:40:00,
2013-05-20 18:45:00,52.0,25.9,30.36,SSW,200,0.0,0.0,36,0.00,,---,0.00,VWS V13.00,2013-05-21 02:45:00,
2013-05-20 18:50:00,51.6,26.2,30.36,West,263,0.0,0.0,37,0.00,,---,0.00,VWS V13.00,2013-05-21 02:50:00,
2013-05-20 18:55:00,51.6,26.2,30.36,SW,217,0.0,0.0,37,0.00,,---,0.00,VWS V13.00,2013-05-21 02:55:00,
2013-05-20 19:00:00,51.6,26.2,30.36,SSW,202,0.0,0.0,37,0.00,,---,0.00,VWS V13.00,2013-05-21 03:00:00,
2013-05-20 19:05:00,52.0,25.9,30.36,SW,221,0.0,0.0,36,0.00,,---,0.00,VWS V13.00,2013-05-21 03:05:00,
2013-05-20 19:10:00,51.6,26.2,30.36,SSW,199,0.0,0.0,37,0.00,,---,0.00,VWS V13.00,2013-05-21 03:10:00,
2013-05-20 19:15:00,51.6,26.2,30.36,South,171,0.0,0.0,37,0.00,,---,0.00,VWS V13.00,2013-05-21 03:15:00,
2013-05-20 19:20:00,51.6,26.2,30.36,South,183,0.0,0.0,37,0.00,,---,0.00,VWS V13.00,2013-05-21 03:20:00,
2013-05-20 19:25:00,50.5,25.2,30.36,WSW,240,0.0,0.0,37,0.00,,---,0.00,VWS V13.00,2013-05-21 03:25:00,
2013-05-20 19:30:00,50.7,25.4,30.36,WSW,243,0.0,0.0,37,0.00,,---,0.00,VWS V13.00,2013-05-21 03:30:00,
2013-05-20 19:35:00,50.5,25.2,30.36,WSW,243,0.0,0.0,37,0.00,,---,0.00,VWS V13.00,2013-05-21 03:35:00,
2013-05-20 19:40:00,50.5,25.2,30.36,ENE,67,0.0,0.0,37,0.00,,---,0.00,VWS V13.00,2013-05-21 03:40:00,
2013-05-20 19:45:00,48.4,24.0,30.36,ENE,61,0.0,0.0,38,0.00,,---,0.00,VWS V13.00,2013-05-21 03:45:00,
2013-05-20 19:50:00,48.0,23.6,30.36,North,0,0.0,0.0,38,0.00,,---,0.00,VWS V13.00,2013-05-21 03:50:00,
2013-05-20 19:55:00,47.8,24.7,30.36,North,0,0.0,0.0,40,0.00,,---,0.00,VWS V13.00,2013-05-21 03:55:00,
2013-05-20 20:00:00,47.8,24.7,30.36,North,357,0.0,0.0,40,0.00,,---,0.00,VWS V13.00,2013-05-21 04:00:00,
2013-05-20 20:01:00,47.8,24.7,30.36,North,349,0.0,0.0,40,0.00,,---,0.00,VWS V13.00,2013-05-21 04:01:00,
2013-05-20 20:06:00,47.3,25.4,30.36,North,357,0.0,0.0,42,0.00,,---,0.00,VWS V13.00,2013-05-21 04:06:00,
2013-05-20 20:11:00,47.3,25.4,30.36,ENE,75,0.0,0.0,42,0.00,,---,0.00,VWS V13.00,2013-05-21 04:11:00,
2013-05-20 20:16:00,46.4,25.1,30.36,North,357,0.0,0.0,43,0.00,,---,0.00,VWS V13.00,2013-05-21 04:16:00,
2013-05-20 20:21:00,46.0,25.9,30.36,NE,46,0.0,0.0,45,0.00,,---,0.00,VWS V13.00,2013-05-21 04:21:00,
2013-05-20 20:26:00,46.0,25.9,30.36,North,349,0.0,0.0,45,0.00,,---,0.00,VWS V13.00,2013-05-21 04:26:00,
2013-05-20 20:31:00,45.5,25.9,30.36,North,2,0.0,0.0,46,0.00,,---,0.00,VWS V13.00,2013-05-21 04:31:00,
2013-05-20 20:36:00,45.5,25.9,30.36,North,2,0.0,0.0,46,0.00,,---,0.00,VWS V13.00,2013-05-21 04:36:00,
2013-05-20 20:41:00,45.3,26.3,30.36,East,85,0.0,0.0,47,0.00,,---,0.00,VWS V13.00,2013-05-21 04:41:00,
2013-05-20 20:46:00,45.3,26.3,30.36,East,97,0.0,0.0,47,0.00,,---,0.00,VWS V13.00,2013-05-21 04:46:00,
2013-05-20 20:51:00,46.2,27.1,30.36,East,97,0.0,0.0,47,0.00,,---,0.00,VWS V13.00,2013-05-21 04:51:00,
2013-05-20 20:56:00,46.2,27.1,30.36,East,97,0.0,0.0,47,0.00,,---,0.00,VWS V13.00,2013-05-21 04:56:00,
2013-05-20 21:01:00,46.2,27.1,30.36,East,97,0.0,0.0,47,0.00,,---,0.00,VWS V13.00,2013-05-21 05:01:00,
2013-05-20 21:06:00,46.9,26.2,30.36,East,97,0.0,0.0,44,0.00,,---,0.00,VWS V13.00,2013-05-21 05:06:00,
2013-05-20 21:11:00,46.9,26.2,30.36,East,93,0.0,0.0,44,0.00,,---,0.00,VWS V13.00,2013-05-21 05:11:00,
2013-05-20 21:16:00,46.9,26.2,30.36,East,93,0.0,0.0,44,0.00,,---,0.00,VWS V13.00,2013-05-21 05:16:00,
2013-05-20 21:21:00,46.9,26.2,30.36,East,93,0.0,0.0,44,0.00,,---,0.00,VWS V13.00,2013-05-21 05:21:00,
2013-05-20 21:26:00,45.9,25.7,30.36,East,93,0.0,0.0,45,0.00,,---,0.00,VWS V13.00,2013-05-21 05:26:00,
2013-05-20 21:31:00,45.9,25.7,30.36,East,93,0.0,0.0,45,0.00,,---,0.00,VWS V13.00,2013-05-21 05:31:00,
2013-05-20 21:36:00,45.7,25.6,30.36,East,93,0.0,0.0,45,0.00,,---,0.00,VWS V13.00,2013-05-21 05:36:00,
2013-05-20 21:41:00,45.7,25.6,30.36,East,93,0.0,0.0,45,0.00,,---,0.00,VWS V13.00,2013-05-21 05:41:00,
2013-05-20 21:46:00,45.5,25.9,30.36,East,93,0.0,0.0,46,0.00,,---,0.00,VWS V13.00,2013-05-21 05:46:00,
2013-05-20 21:51:00,45.9,26.8,30.36,North,3,0.0,0.0,47,0.00,,---,0.00,VWS V13.00,2013-05-21 05:51:00,
2013-05-20 21:56:00,45.9,26.8,30.36,NW,314,0.0,0.0,47,0.00,,---,0.00,VWS V13.00,2013-05-21 05:56:00,
2013-05-20 22:01:00,45.9,26.8,30.36,NW,314,0.0,0.0,47,0.00,,---,0.00,VWS V13.00,2013-05-21 06:01:00,
2013-05-20 22:06:00,45.3,26.3,30.36,NW,314,0.0,0.0,47,0.00,,---,0.00,VWS V13.00,2013-05-21 06:06:00,
2013-05-20 22:11:00,45.1,26.1,30.36,NW,314,0.0,0.0,47,0.00,,---,0.00,VWS V13.00,2013-05-21 06:11:00,
2013-05-20 22:16:00,44.6,25.6,30.36,ENE,60,0.0,0.0,47,0.00,,---,0.00,VWS V13.00,2013-05-21 06:16:00,
2013-05-20 22:21:00,44.6,25.6,30.36,NNW,338,0.0,0.0,47,0.00,,---,0.00,VWS V13.00,2013-05-21 06:21:00,
2013-05-20 22:26:00,44.8,26.3,30.36,NNW,338,0.0,0.0,48,0.00,,---,0.00,VWS V13.00,2013-05-21 06:26:00,
2013-05-20 22:31:00,44.4,26.0,30.36,NNW,338,0.0,0.0,48,0.00,,---,0.00,VWS V13.00,2013-05-21 06:31:00,
2013-05-20 22:36:00,44.4,26.0,30.33,NNW,338,0.0,0.0,48,0.00,,---,0.00,VWS V13.00,2013-05-21 06:36:00,
2013-05-20 22:41:00,44.2,25.8,30.33,NNW,338,0.0,0.0,48,0.00,,---,0.00,VWS V13.00,2013-05-21 06:41:00,
2013-05-20 22:46:00,44.2,25.8,30.33,NNW,338,0.0,0.0,48,0.00,,---,0.00,VWS V13.00,2013-05-21 06:46:00,
2013-05-20 22:51:00,44.2,26.3,30.33,NNW,338,0.0,0.0,49,0.00,,---,0.00,VWS V13.00,2013-05-21 06:51:00,
2013-05-20 22:56:00,44.2,26.3,30.33,NE,55,0.0,0.0,49,0.00,,---,0.00,VWS V13.00,2013-05-21 06:56:00,
2013-05-20 23:01:00,43.5,25.6,30.33,NE,56,0.0,0.0,49,0.00,,---,0.00,VWS V13.00,2013-05-21 07:01:00,
2013-05-20 23:06:00,43.5,25.6,30.33,NE,56,0.0,0.0,49,0.00,,---,0.00,VWS V13.00,2013-05-21 07:06:00,
2013-05-20 23:11:00,43.3,25.5,30.33,NE,55,0.0,0.0,49,0.00,,---,0.00,VWS V13.00,2013-05-21 07:11:00,
2013-05-20 23:16:00,43.3,25.5,30.33,NE,56,0.0,0.0,49,0.00,,---,0.00,VWS V13.00,2013-05-21 07:16:00,
2013-05-20 23:21:00,43.3,25.5,30.33,NE,56,0.0,0.0,49,0.00,,---,0.00,VWS V13.00,2013-05-21 07:21:00,
2013-05-20 23:26:00,43.7,26.3,30.33,NE,55,0.0,0.0,50,0.00,,---,0.00,VWS V13.00,2013-05-21 07:26:00,
2013-05-20 23:31:00,43.5,26.1,30.33,NE,55,0.0,0.0,50,0.00,,---,0.00,VWS V13.00,2013-05-21 07:31:00,
2013-05-20 23:36:00,43.5,26.1,30.33,NE,56,0.0,0.0,50,0.00,,---,0.00,VWS V13.00,2013-05-21 07:36:00,
2013-05-20 23:41:00,43.5,26.1,30.33,NE,55,0.0,0.0,50,0.00,,---,0.00,VWS V13.00,2013-05-21 07:41:00,
2013-05-20 23:46:00,43.2,25.8,30.33,NE,55,0.0,0.0,50,0.00,,---,0.00,VWS V13.00,2013-05-21 07:46:00,
2013-05-20 23:51:00,43.0,25.6,30.33,NE,56,0.0,0.0,50,0.00,,---,0.00,VWS V13.00,2013-05-21 07:51:00,
2013-05-20 23:56:00,43.0,25.6,30.33,NE,55,0.0,0.0,50,0.00,,---,0.00,VWS V13.00,2013-05-21 07:56:00,